Lardo, Idaho
Current Conditions -  °F | °C
As of 1:51 PM on Thursday 20 Nov 2014 (Local Time) from KMYL Reporting Station
Overcast Overcast  
Wind Chill: 34°   Ceiling: 1600
Heat Index: 34°   Visibility: 10mi
Dew Point: 29°   Wind: 0mph
Humidity: 82%   Direction: NA
Pressure: 30.03"   Gusts: NA
Location:  44.8627°N, 115.492°W
Report Text: KMYL 202051Z AUTO 00000KT 10SM FEW010 OVC016 01/M02 A3003 RMK AO2 UPB18E30 SLP199 P0000 60000 T00111017 58006
Loading
Personal Weather Stations






























Interactive Weather Map New forecast layout! Learn more

10-Day Weather Forecast

Advertisements
Track Severe Weather on mobile